createdAt,value
2023-01-19T00:00:12.135Z,10.97
2023-01-19T00:05:36.179Z,10.50
2023-01-19T00:10:39.246Z,17.17
2023-01-19T00:15:42.554Z,10.00
2023-01-19T00:20:46.572Z,11.13
2023-01-19T00:25:51.335Z,11.47
2023-01-19T00:30:54.292Z,11.10
2023-01-19T00:35:57.292Z,13.33
2023-01-19T00:41:00.404Z,12.40
2023-01-19T00:46:03.516Z,13.13
2023-01-19T00:51:07.212Z,13.00
2023-01-19T00:56:10.133Z,13.37
2023-01-19T01:01:13.936Z,14.57
2023-01-19T01:06:17.215Z,15.90
2023-01-19T01:11:20.060Z,17.23
2023-01-19T01:16:23.356Z,18.47
2023-01-19T01:21:26.290Z,17.77
2023-01-19T01:26:29.635Z,18.17
2023-01-19T01:31:32.873Z,15.77
2023-01-19T01:36:36.307Z,16.13
2023-01-19T01:41:39.199Z,15.77
2023-01-19T01:46:42.522Z,16.23
2023-01-19T01:51:52.444Z,16.00
2023-01-19T01:56:59.725Z,14.37
2023-01-19T02:02:24.037Z,14.77
2023-01-19T02:07:54.130Z,14.60
2023-01-19T02:13:16.147Z,15.33
2023-01-19T02:18:24.903Z,14.63
2023-01-19T02:23:37.496Z,13.30
2023-01-19T02:28:43.157Z,12.97
2023-01-19T02:33:47.160Z,12.73
2023-01-19T02:38:51.389Z,12.90
2023-01-19T02:43:54.585Z,10.07
2023-01-19T02:49:01.745Z,11.47
2023-01-19T02:54:20.386Z,11.30
2023-01-19T02:59:39.471Z,10.60
2023-01-19T03:05:18.025Z,10.63
2023-01-19T03:10:31.074Z,9.43
2023-01-19T03:15:48.069Z,9.00
2023-01-19T03:20:53.801Z,8.73
2023-01-19T03:25:59.477Z,8.03
2023-01-19T03:31:07.721Z,7.57
2023-01-19T03:36:16.590Z,7.77
2023-01-19T03:41:21.776Z,8.97
2023-01-19T03:46:25.099Z,9.30
2023-01-19T03:51:28.377Z,9.17
2023-01-19T03:56:32.091Z,8.80
2023-01-19T04:01:35.233Z,8.53
2023-01-19T04:06:38.123Z,9.27
2023-01-19T04:11:41.129Z,9.07
2023-01-19T04:16:44.113Z,8.47
2023-01-19T04:21:51.054Z,7.60
2023-01-19T04:26:54.055Z,7.40
2023-01-19T04:31:57.069Z,6.83
2023-01-19T04:37:00.382Z,6.83
2023-01-19T04:42:03.552Z,7.47
2023-01-19T04:47:06.622Z,7.30
2023-01-19T04:52:09.932Z,6.83
2023-01-19T04:57:13.158Z,7.73
2023-01-19T05:02:16.406Z,7.13
2023-01-19T05:07:19.425Z,7.87
2023-01-19T05:12:22.597Z,9.97
2023-01-19T05:17:25.580Z,16.73
2023-01-19T05:22:28.524Z,14.20
2023-01-19T05:27:31.407Z,13.40
2023-01-19T05:32:34.287Z,15.27
2023-01-19T05:37:37.394Z,19.73
2023-01-19T05:42:40.501Z,17.03
2023-01-19T05:47:43.508Z,22.70
2023-01-19T05:52:47.109Z,19.80
2023-01-19T05:57:50.318Z,14.20
2023-01-19T06:02:54.106Z,11.67
2023-01-19T06:07:57.575Z,10.43
2023-01-19T06:13:00.841Z,15.80
2023-01-19T06:18:04.224Z,14.60
2023-01-19T06:23:07.202Z,13.37
2023-01-19T06:28:10.280Z,11.23
2023-01-19T06:33:13.142Z,12.10
2023-01-19T06:38:18.332Z,15.67
2023-01-19T06:43:22.277Z,36.20
2023-01-19T06:48:25.289Z,29.23
2023-01-19T06:53:30.370Z,38.87
2023-01-19T06:58:35.826Z,23.60
2023-01-19T07:03:38.921Z,13.83
2023-01-19T07:08:42.187Z,12.73
2023-01-19T07:13:48.208Z,17.70
2023-01-19T07:18:52.318Z,14.67
2023-01-19T07:23:55.271Z,13.83
2023-01-19T07:28:58.429Z,10.70
2023-01-19T07:34:01.742Z,12.10
2023-01-19T07:39:04.967Z,11.50
2023-01-19T07:44:09.065Z,12.27
2023-01-19T07:49:12.827Z,13.47
2023-01-19T07:54:15.895Z,14.83
2023-01-19T07:59:19.041Z,13.80
2023-01-19T08:04:24.818Z,13.40
2023-01-19T08:09:27.900Z,14.27
2023-01-19T08:14:31.272Z,14.93
2023-01-19T08:19:34.361Z,15.03
2023-01-19T08:24:37.359Z,13.80
2023-01-19T08:29:40.765Z,13.40
2023-01-19T08:34:43.980Z,13.20
2023-01-19T08:39:47.761Z,14.07
2023-01-19T08:44:58.195Z,49.70
2023-01-19T08:50:01.666Z,16.57
2023-01-19T08:55:05.359Z,15.03
2023-01-19T09:00:11.412Z,16.70
2023-01-19T09:05:15.064Z,14.83
2023-01-19T09:10:18.834Z,14.07
2023-01-19T09:15:22.397Z,16.60
2023-01-19T09:20:25.925Z,16.87
2023-01-19T09:25:29.162Z,31.57
2023-01-19T09:30:33.512Z,18.80
2023-01-19T09:35:37.298Z,15.93
2023-01-19T09:40:59.672Z,23.37
2023-01-19T09:46:05.893Z,18.67
2023-01-19T09:51:13.909Z,17.90
2023-01-19T09:56:19.682Z,19.80
2023-01-19T10:01:34.834Z,19.87
2023-01-19T10:06:38.269Z,21.00
2023-01-19T10:11:52.933Z,16.63
2023-01-19T10:17:08.856Z,19.83
2023-01-19T10:22:30.790Z,16.70
2023-01-19T10:27:35.841Z,13.83
2023-01-19T10:32:39.493Z,12.90
2023-01-19T10:37:45.030Z,9.73
2023-01-19T10:42:48.859Z,9.27
2023-01-19T10:47:53.452Z,11.30
2023-01-19T10:53:01.719Z,9.73
2023-01-19T10:58:06.162Z,6.93
2023-01-19T11:03:25.723Z,6.83
2023-01-19T11:08:31.690Z,8.80
2023-01-19T11:13:35.591Z,7.87
2023-01-19T11:18:40.491Z,9.87
2023-01-19T11:23:52.002Z,8.10
2023-01-19T11:28:56.924Z,8.47
2023-01-19T11:34:05.862Z,7.13
2023-01-19T11:39:24.071Z,8.03
2023-01-19T11:44:31.741Z,10.63
2023-01-19T11:49:50.180Z,8.03
2023-01-19T11:55:17.938Z,9.40
2023-01-19T12:00:59.753Z,7.80
2023-01-19T12:06:10.140Z,7.70
2023-01-19T12:11:17.369Z,7.00
2023-01-19T12:16:22.278Z,9.30
2023-01-19T12:21:25.596Z,7.73
2023-01-19T12:26:33.291Z,8.23
2023-01-19T12:31:38.571Z,7.80
2023-01-19T12:36:42.031Z,10.77
2023-01-19T12:41:47.325Z,9.30
2023-01-19T12:47:05.469Z,9.70
2023-01-19T12:52:27.461Z,27.57
2023-01-19T12:58:03.196Z,25.17
2023-01-19T13:03:26.977Z,27.30
2023-01-19T13:08:56.629Z,14.13
2023-01-19T13:13:59.969Z,13.87
2023-01-19T13:19:06.464Z,10.93
2023-01-19T13:24:25.451Z,9.83
2023-01-19T13:29:35.328Z,18.00
2023-01-19T13:34:45.534Z,11.60
2023-01-19T13:39:50.608Z,11.40
2023-01-19T13:44:55.533Z,10.23
2023-01-19T13:49:59.067Z,9.67
2023-01-19T13:55:04.557Z,10.17
2023-01-19T14:00:17.051Z,11.73
2023-01-19T14:05:25.133Z,10.87
2023-01-19T14:10:28.909Z,12.30
2023-01-19T14:15:35.397Z,12.07
2023-01-19T14:20:39.071Z,11.37
2023-01-19T14:25:44.899Z,10.93
2023-01-19T14:30:58.855Z,11.77
2023-01-19T14:36:24.443Z,12.23
2023-01-19T14:41:34.218Z,12.13
2023-01-19T14:46:38.649Z,13.57
2023-01-19T14:51:45.459Z,15.90
2023-01-19T14:56:48.491Z,15.30
2023-01-19T15:01:51.859Z,15.47
2023-01-19T15:06:55.773Z,15.10
2023-01-19T15:11:59.454Z,16.27
2023-01-19T15:17:02.499Z,20.60
2023-01-19T15:22:13.385Z,21.40
2023-01-19T15:27:16.760Z,19.57
2023-01-19T15:32:19.857Z,19.47
2023-01-19T15:37:23.123Z,18.67
2023-01-19T15:42:26.204Z,21.77
2023-01-19T15:47:29.191Z,24.93
2023-01-19T15:52:32.179Z,27.23
2023-01-19T15:57:35.359Z,25.53
2023-01-19T16:02:38.252Z,26.63
2023-01-19T16:07:41.315Z,28.13
2023-01-19T16:12:45.547Z,29.50
2023-01-19T16:17:48.540Z,32.10
2023-01-19T16:22:53.765Z,32.57
2023-01-19T16:27:58.524Z,29.70
2023-01-19T16:33:01.396Z,31.93
2023-01-19T16:38:04.637Z,32.73
2023-01-19T16:43:07.801Z,35.27
2023-01-19T16:48:10.749Z,38.10
2023-01-19T16:53:13.882Z,37.17
2023-01-19T16:58:16.837Z,39.17
2023-01-19T17:03:20.107Z,44.27
2023-01-19T17:08:23.040Z,41.03
2023-01-19T17:13:25.853Z,43.93
2023-01-19T17:18:31.733Z,46.43
2023-01-19T17:23:36.495Z,40.10
2023-01-19T17:28:39.753Z,44.23
2023-01-19T17:33:47.625Z,41.57
2023-01-19T17:38:51.983Z,38.77
2023-01-19T17:43:55.201Z,45.67
2023-01-19T17:49:00.266Z,63.10
2023-01-19T17:54:04.348Z,59.10
2023-01-19T17:59:08.319Z,46.73
2023-01-19T18:04:11.763Z,45.13
2023-01-19T18:09:14.804Z,41.70
2023-01-19T18:14:17.826Z,38.60
2023-01-19T18:19:36.068Z,41.50
2023-01-19T18:24:39.397Z,39.40
2023-01-19T18:29:43.301Z,42.10
2023-01-19T18:34:51.236Z,63.33
2023-01-19T18:39:55.790Z,44.10
2023-01-19T18:44:59.106Z,49.43
2023-01-19T18:50:02.072Z,51.60
2023-01-19T18:55:05.462Z,40.07
2023-01-19T19:00:11.211Z,43.97
2023-01-19T19:05:14.438Z,44.10
2023-01-19T19:10:17.825Z,45.23
2023-01-19T19:15:20.994Z,46.17
2023-01-19T19:20:24.455Z,46.07
2023-01-19T19:25:27.730Z,45.03
2023-01-19T19:30:32.747Z,48.70
2023-01-19T19:35:35.966Z,49.20
2023-01-19T19:40:38.926Z,46.63
2023-01-19T19:45:42.124Z,49.60
2023-01-19T19:50:45.317Z,49.90
2023-01-19T19:55:59.744Z,54.07
2023-01-19T20:01:13.419Z,60.27
2023-01-19T20:06:21.016Z,54.23
2023-01-19T20:11:27.068Z,50.97
2023-01-19T20:16:29.987Z,46.73
2023-01-19T20:21:35.985Z,47.67
2023-01-19T20:26:42.016Z,54.77
2023-01-19T20:31:49.481Z,47.13
2023-01-19T20:36:54.077Z,44.27
2023-01-19T20:41:57.260Z,44.13
2023-01-19T20:47:00.537Z,44.83
2023-01-19T20:52:03.882Z,41.60
2023-01-19T20:57:07.264Z,41.73
2023-01-19T21:02:14.527Z,43.63
2023-01-19T21:07:17.492Z,50.20
2023-01-19T21:12:21.640Z,46.77
2023-01-19T21:17:26.231Z,45.70
2023-01-19T21:22:29.896Z,50.60
2023-01-19T21:27:32.876Z,44.30
2023-01-19T21:32:36.263Z,44.57
2023-01-19T21:37:39.443Z,37.40
2023-01-19T21:42:42.446Z,39.17
2023-01-19T21:47:46.084Z,33.20
2023-01-19T21:52:49.005Z,32.00
2023-01-19T21:57:53.219Z,31.53
2023-01-19T22:03:03.897Z,27.33
2023-01-19T22:08:07.775Z,30.93
2023-01-19T22:13:10.657Z,27.50
2023-01-19T22:18:13.590Z,26.63
2023-01-19T22:23:16.562Z,27.80
2023-01-19T22:28:19.510Z,21.53
2023-01-19T22:33:23.074Z,20.10
2023-01-19T22:38:26.233Z,21.03
2023-01-19T22:43:29.863Z,21.80
2023-01-19T22:48:33.166Z,20.00
2023-01-19T22:53:36.183Z,22.20
2023-01-19T22:58:44.747Z,22.53
2023-01-19T23:03:47.735Z,19.60
2023-01-19T23:08:51.835Z,17.53
2023-01-19T23:13:55.734Z,16.80
2023-01-19T23:18:59.206Z,17.60
2023-01-19T23:24:04.313Z,18.80
2023-01-19T23:29:13.143Z,17.97
2023-01-19T23:34:17.033Z,18.17
2023-01-19T23:39:21.984Z,17.40
2023-01-19T23:44:25.452Z,17.27
2023-01-19T23:49:28.522Z,18.87
2023-01-19T23:54:31.541Z,16.43
2023-01-19T23:59:34.994Z,16.70
